createdAt,value
2024-03-24T00:00:28.841Z,0
2024-03-24T00:01:42.156Z,0
2024-03-24T00:02:56.450Z,0
2024-03-24T00:04:10.744Z,0
2024-03-24T00:05:25.038Z,0
2024-03-24T00:06:39.332Z,0
2024-03-24T00:07:53.626Z,0
2024-03-24T00:09:07.920Z,0
2024-03-24T00:10:22.214Z,0
2024-03-24T00:11:36.508Z,0
2024-03-24T00:12:50.802Z,0
2024-03-24T00:14:05.096Z,0
2024-03-24T00:15:19.390Z,0
2024-03-24T00:16:33.684Z,0
2024-03-24T00:17:46.994Z,0
2024-03-24T00:19:01.288Z,0
2024-03-24T00:20:15.582Z,0
2024-03-24T00:21:29.876Z,0
2024-03-24T00:22:44.170Z,0
2024-03-24T00:23:58.464Z,0
2024-03-24T00:25:12.758Z,0
2024-03-24T00:26:27.052Z,0
2024-03-24T00:27:41.346Z,0
2024-03-24T00:28:55.640Z,0
2024-03-24T00:30:09.934Z,0
2024-03-24T00:31:24.228Z,0
2024-03-24T00:32:38.522Z,0
2024-03-24T00:33:51.832Z,0
2024-03-24T00:35:06.126Z,0
2024-03-24T00:36:20.420Z,0
2024-03-24T00:37:34.714Z,0
2024-03-24T00:38:49.008Z,0
2024-03-24T00:40:03.302Z,0
2024-03-24T00:41:17.596Z,0
2024-03-24T00:42:31.890Z,0
2024-03-24T00:43:46.184Z,0
2024-03-24T00:45:00.478Z,0
2024-03-24T00:46:14.772Z,0
2024-03-24T00:47:29.066Z,0
2024-03-24T00:48:43.360Z,0
2024-03-24T00:49:56.670Z,0
2024-03-24T00:51:10.964Z,0
2024-03-24T00:52:25.258Z,0
2024-03-24T00:53:39.552Z,0
2024-03-24T00:54:53.846Z,0
2024-03-24T00:56:08.140Z,0
2024-03-24T00:57:22.434Z,0
2024-03-24T00:58:36.728Z,0
2024-03-24T00:59:51.022Z,0
2024-03-24T01:01:05.316Z,0
2024-03-24T01:02:19.610Z,0
2024-03-24T01:03:33.904Z,0
2024-03-24T01:04:48.198Z,0
2024-03-24T01:06:01.508Z,0
2024-03-24T01:07:15.802Z,0
2024-03-24T01:08:30.095Z,0
2024-03-24T01:09:44.390Z,0
2024-03-24T01:10:58.684Z,0
2024-03-24T01:12:12.978Z,0
2024-03-24T01:13:27.272Z,0
2024-03-24T01:14:41.566Z,0
2024-03-24T01:15:55.860Z,0
2024-03-24T01:17:10.154Z,0
2024-03-24T01:18:24.447Z,0
2024-03-24T01:19:38.742Z,0
2024-03-24T01:20:53.036Z,0
2024-03-24T01:22:06.346Z,0
2024-03-24T01:23:20.640Z,0
2024-03-24T01:24:34.934Z,0
2024-03-24T01:25:49.228Z,0
2024-03-24T01:27:03.522Z,0
2024-03-24T01:28:17.815Z,0
2024-03-24T01:29:32.109Z,0
2024-03-24T01:30:46.404Z,0
2024-03-24T01:32:00.697Z,0
2024-03-24T01:33:14.991Z,0
2024-03-24T01:34:29.285Z,0
2024-03-24T01:35:43.579Z,0
2024-03-24T01:36:57.873Z,0
2024-03-24T01:38:11.183Z,0
2024-03-24T01:39:25.477Z,0
2024-03-24T01:40:39.771Z,0
2024-03-24T01:41:54.066Z,0
2024-03-24T01:43:08.360Z,0
2024-03-24T01:44:22.654Z,0
2024-03-24T01:45:36.948Z,0
2024-03-24T01:46:51.242Z,0
2024-03-24T01:48:05.535Z,0
2024-03-24T01:49:19.829Z,0
2024-03-24T01:50:34.123Z,0
2024-03-24T01:51:48.419Z,0
2024-03-24T01:53:02.713Z,0
2024-03-24T01:54:16.023Z,0
2024-03-24T01:55:30.317Z,0
2024-03-24T01:56:44.611Z,0
2024-03-24T01:57:58.905Z,0
2024-03-24T01:59:13.199Z,0
2024-03-24T02:00:27.493Z,0
2024-03-24T02:01:41.787Z,0
2024-03-24T02:02:56.081Z,0
2024-03-24T02:04:10.375Z,0
2024-03-24T02:05:24.669Z,0
2024-03-24T02:06:38.963Z,0
2024-03-24T02:07:53.257Z,0
2024-03-24T02:09:07.551Z,0
2024-03-24T02:10:20.861Z,0
2024-03-24T02:11:35.155Z,0
2024-03-24T02:12:49.449Z,0
2024-03-24T02:14:03.743Z,0
2024-03-24T02:15:18.037Z,0
2024-03-24T02:16:32.331Z,0
2024-03-24T02:17:46.625Z,0
2024-03-24T02:19:00.919Z,0
2024-03-24T02:20:15.214Z,0
2024-03-24T02:21:29.508Z,0
2024-03-24T02:22:43.802Z,0
2024-03-24T02:23:58.096Z,0
2024-03-24T02:25:12.390Z,0
2024-03-24T02:26:26.684Z,0
2024-03-24T02:27:40.978Z,0
2024-03-24T02:28:54.288Z,0
2024-03-24T02:30:08.582Z,0
2024-03-24T02:31:22.876Z,0
2024-03-24T02:32:37.170Z,0
2024-03-24T02:33:51.464Z,0
2024-03-24T02:35:05.759Z,0
2024-03-24T02:36:20.053Z,0
2024-03-24T02:37:34.347Z,0
2024-03-24T02:38:48.641Z,0
2024-03-24T02:40:02.935Z,0
2024-03-24T02:41:17.229Z,0
2024-03-24T02:42:31.523Z,0
2024-03-24T02:43:45.817Z,0
2024-03-24T02:44:59.127Z,0
2024-03-24T02:46:13.421Z,0
2024-03-24T02:47:27.715Z,0
2024-03-24T02:48:42.010Z,0
2024-03-24T02:49:56.304Z,0
2024-03-24T02:51:10.598Z,0
2024-03-24T02:52:24.892Z,0
2024-03-24T02:53:39.186Z,0
2024-03-24T02:54:53.480Z,0
2024-03-24T02:56:07.774Z,0
2024-03-24T02:57:22.068Z,0
2024-03-24T02:58:36.362Z,0
2024-03-24T02:59:50.656Z,0
2024-03-24T03:01:03.966Z,0
2024-03-24T03:02:18.260Z,0
2024-03-24T03:03:32.554Z,0
2024-03-24T03:04:46.848Z,0
2024-03-24T03:06:01.142Z,0
2024-03-24T03:07:15.436Z,0
2024-03-24T03:08:29.730Z,0
2024-03-24T03:09:44.024Z,0
2024-03-24T03:10:58.318Z,0
2024-03-24T03:12:12.612Z,0
2024-03-24T03:13:26.906Z,0
2024-03-24T03:14:41.200Z,0
2024-03-24T03:15:55.494Z,0
2024-03-24T03:17:08.804Z,0
2024-03-24T03:18:23.098Z,0
2024-03-24T03:19:37.392Z,0
2024-03-24T03:20:51.686Z,0
2024-03-24T03:22:05.980Z,0
2024-03-24T03:23:20.274Z,0
2024-03-24T03:24:34.568Z,0
2024-03-24T03:25:48.862Z,0
2024-03-24T03:27:03.155Z,0
2024-03-24T03:28:17.450Z,0
2024-03-24T03:29:31.744Z,0
2024-03-24T03:30:46.038Z,0
2024-03-24T03:32:00.332Z,0
2024-03-24T03:33:13.642Z,0
2024-03-24T03:34:27.936Z,0
2024-03-24T03:35:42.229Z,0
2024-03-24T03:36:56.523Z,0
2024-03-24T03:38:10.817Z,0
2024-03-24T03:39:25.112Z,0
2024-03-24T03:40:39.405Z,0
2024-03-24T03:41:53.699Z,0
2024-03-24T03:43:07.993Z,0
2024-03-24T03:44:22.287Z,0
2024-03-24T03:45:36.581Z,0
2024-03-24T03:46:50.875Z,0
2024-03-24T03:48:05.169Z,0
2024-03-24T03:49:18.479Z,0
2024-03-24T03:50:32.774Z,0
2024-03-24T03:51:47.068Z,0
2024-03-24T03:53:01.361Z,0
2024-03-24T03:54:15.655Z,0
2024-03-24T03:55:29.950Z,0
2024-03-24T03:56:44.244Z,0
2024-03-24T03:57:58.538Z,0
2024-03-24T03:59:12.832Z,0
2024-03-24T04:00:27.127Z,0
2024-03-24T04:01:41.421Z,0
2024-03-24T04:02:55.714Z,0
2024-03-24T04:04:10.008Z,0
2024-03-24T04:05:23.318Z,0
2024-03-24T04:06:37.612Z,0
2024-03-24T04:07:51.906Z,0
2024-03-24T04:09:06.200Z,0
2024-03-24T04:10:19.515Z,0
2024-03-24T04:11:33.809Z,0
2024-03-24T04:12:48.104Z,0
2024-03-24T04:14:02.398Z,0
2024-03-24T04:15:16.691Z,0
2024-03-24T04:16:30.985Z,0
2024-03-24T04:17:45.279Z,0
2024-03-24T04:18:59.573Z,0
2024-03-24T04:20:13.867Z,0
2024-03-24T04:21:28.161Z,0
2024-03-24T04:22:42.455Z,0
2024-03-24T04:23:56.749Z,0
2024-03-24T04:25:11.043Z,0
2024-03-24T04:26:24.310Z,0
2024-03-24T04:27:38.550Z,0
2024-03-24T04:28:52.844Z,0
2024-03-24T04:30:07.139Z,0
2024-03-24T04:31:21.433Z,0
2024-03-24T04:32:35.727Z,0
2024-03-24T04:33:50.022Z,0
2024-03-24T04:35:04.317Z,0
2024-03-24T04:36:18.568Z,0
2024-03-24T04:37:32.808Z,0
2024-03-24T04:38:47.048Z,0
2024-03-24T04:40:01.288Z,0
2024-03-24T04:41:15.528Z,0
2024-03-24T04:42:28.784Z,0
2024-03-24T04:43:43.024Z,0
2024-03-24T04:44:57.264Z,0
2024-03-24T04:46:11.504Z,0
2024-03-24T04:47:25.744Z,0
2024-03-24T04:48:39.984Z,0
2024-03-24T04:49:54.224Z,5
2024-03-24T04:51:08.464Z,5
2024-03-24T04:52:22.704Z,5
2024-03-24T04:53:36.944Z,5
2024-03-24T04:54:51.185Z,11
2024-03-24T04:56:05.425Z,11
2024-03-24T04:57:19.665Z,16
2024-03-24T04:58:32.921Z,16
2024-03-24T04:59:47.161Z,22
2024-03-24T05:01:01.401Z,22
2024-03-24T05:02:15.641Z,28
2024-03-24T05:03:29.881Z,33
2024-03-24T05:04:44.121Z,33
2024-03-24T05:05:58.361Z,39
2024-03-24T05:07:12.601Z,39
2024-03-24T05:08:26.841Z,39
2024-03-24T05:09:41.081Z,45
2024-03-24T05:10:55.321Z,50
2024-03-24T05:12:09.562Z,56
2024-03-24T05:13:23.802Z,56
2024-03-24T05:14:37.058Z,61
2024-03-24T05:15:51.298Z,67
2024-03-24T05:17:05.538Z,73
2024-03-24T05:18:19.778Z,78
2024-03-24T05:19:34.018Z,84
2024-03-24T05:20:48.258Z,90
2024-03-24T05:22:02.498Z,101
2024-03-24T05:23:16.738Z,106
2024-03-24T05:24:30.978Z,118
2024-03-24T05:25:45.218Z,129
2024-03-24T05:26:59.458Z,135
2024-03-24T05:28:13.698Z,140
2024-03-24T05:29:27.938Z,140
2024-03-24T05:30:41.194Z,146
2024-03-24T05:31:55.435Z,151
2024-03-24T05:33:09.674Z,157
2024-03-24T05:34:23.914Z,163
2024-03-24T05:35:38.154Z,168
2024-03-24T05:36:52.395Z,180
2024-03-24T05:38:06.636Z,202
2024-03-24T05:39:20.876Z,253
2024-03-24T05:40:35.116Z,298
2024-03-24T05:41:49.356Z,388
2024-03-24T05:43:03.595Z,478
2024-03-24T05:44:17.835Z,534
2024-03-24T05:45:32.075Z,573
2024-03-24T05:46:45.331Z,405
2024-03-24T05:47:59.571Z,427
2024-03-24T05:49:13.811Z,607
2024-03-24T05:50:28.051Z,691
2024-03-24T05:51:42.291Z,601
2024-03-24T05:52:56.531Z,590
2024-03-24T05:54:10.771Z,596
2024-03-24T05:55:25.010Z,455
2024-03-24T05:56:39.250Z,298
2024-03-24T05:57:53.490Z,236
2024-03-24T05:59:07.729Z,225
2024-03-24T06:00:21.969Z,208
2024-03-24T06:01:36.208Z,191
2024-03-24T06:02:49.464Z,180
2024-03-24T06:04:03.703Z,168
2024-03-24T06:05:17.943Z,146
2024-03-24T06:06:32.182Z,135
2024-03-24T06:07:46.422Z,129
2024-03-24T06:09:00.661Z,129
2024-03-24T06:10:14.901Z,135
2024-03-24T06:11:29.141Z,140
2024-03-24T06:12:43.380Z,140
2024-03-24T06:13:57.620Z,146
2024-03-24T06:15:11.860Z,146
2024-03-24T06:16:26.100Z,146
2024-03-24T06:17:40.340Z,140
2024-03-24T06:18:53.596Z,135
2024-03-24T06:20:07.836Z,135
2024-03-24T06:21:22.077Z,135
2024-03-24T06:22:36.317Z,140
2024-03-24T06:23:50.557Z,146
2024-03-24T06:25:04.797Z,146
2024-03-24T06:26:19.037Z,151
2024-03-24T06:27:33.277Z,151
2024-03-24T06:28:47.517Z,151
2024-03-24T06:30:01.758Z,146
2024-03-24T06:31:15.998Z,146
2024-03-24T06:32:30.238Z,151
2024-03-24T06:33:44.478Z,163
2024-03-24T06:34:57.734Z,180
2024-03-24T06:36:11.974Z,196
2024-03-24T06:37:26.214Z,208
2024-03-24T06:38:40.435Z,219
2024-03-24T06:39:54.693Z,236
2024-03-24T06:41:08.934Z,253
2024-03-24T06:42:23.174Z,253
2024-03-24T06:43:37.414Z,258
2024-03-24T06:44:51.654Z,264
2024-03-24T06:46:05.895Z,275
2024-03-24T06:47:20.135Z,292
2024-03-24T06:48:34.375Z,298
2024-03-24T06:49:48.615Z,315
2024-03-24T06:51:01.871Z,331
2024-03-24T06:52:16.111Z,376
2024-03-24T06:53:30.351Z,331
2024-03-24T06:54:44.591Z,337
2024-03-24T06:55:58.831Z,343
2024-03-24T06:57:13.071Z,348
2024-03-24T06:58:27.311Z,354
2024-03-24T06:59:41.551Z,371
2024-03-24T07:00:55.791Z,444
2024-03-24T07:02:10.030Z,455
2024-03-24T07:03:24.270Z,461
2024-03-24T07:04:38.509Z,455
2024-03-24T07:05:52.749Z,472
2024-03-24T07:07:06.005Z,483
2024-03-24T07:08:20.244Z,495
2024-03-24T07:09:34.484Z,500
2024-03-24T07:10:48.723Z,511
2024-03-24T07:12:02.962Z,500
2024-03-24T07:13:17.202Z,478
2024-03-24T07:14:31.442Z,478
2024-03-24T07:15:45.681Z,466
2024-03-24T07:16:59.921Z,472
2024-03-24T07:18:14.160Z,466
2024-03-24T07:19:28.400Z,444
2024-03-24T07:20:42.639Z,455
2024-03-24T07:21:56.879Z,461
2024-03-24T07:23:10.134Z,450
2024-03-24T07:24:24.374Z,444
2024-03-24T07:25:38.614Z,421
2024-03-24T07:26:52.854Z,421
2024-03-24T07:28:07.093Z,433
2024-03-24T07:29:21.333Z,421
2024-03-24T07:30:35.573Z,416
2024-03-24T07:31:49.813Z,421
2024-03-24T07:33:04.053Z,405
2024-03-24T07:34:18.293Z,405
2024-03-24T07:35:32.533Z,405
2024-03-24T07:36:46.772Z,405
2024-03-24T07:38:01.012Z,421
2024-03-24T07:39:14.268Z,433
2024-03-24T07:40:28.507Z,444
2024-03-24T07:41:42.747Z,461
2024-03-24T07:42:56.986Z,461
2024-03-24T07:44:11.226Z,466
2024-03-24T07:45:25.465Z,483
2024-03-24T07:46:39.705Z,511
2024-03-24T07:47:53.945Z,523
2024-03-24T07:49:08.185Z,551
2024-03-24T07:50:22.425Z,568
2024-03-24T07:51:36.665Z,579
2024-03-24T07:52:50.905Z,585
2024-03-24T07:54:05.144Z,590
2024-03-24T07:55:18.400Z,607
2024-03-24T07:56:32.640Z,573
2024-03-24T07:57:46.880Z,601
2024-03-24T07:59:01.120Z,601
2024-03-24T08:00:15.359Z,601
2024-03-24T08:01:29.599Z,596
2024-03-24T08:02:43.838Z,568
2024-03-24T08:03:58.078Z,573
2024-03-24T08:05:12.317Z,500
2024-03-24T08:06:26.557Z,450
2024-03-24T08:07:40.798Z,405
2024-03-24T08:08:55.037Z,337
2024-03-24T08:10:09.277Z,286
2024-03-24T08:11:22.533Z,275
2024-03-24T08:12:36.772Z,286
2024-03-24T08:13:51.012Z,275
2024-03-24T08:15:05.252Z,275
2024-03-24T08:16:19.491Z,281
2024-03-24T08:17:33.731Z,303
2024-03-24T08:18:46.992Z,337
2024-03-24T08:20:01.232Z,331
2024-03-24T08:21:15.471Z,348
2024-03-24T08:22:29.711Z,382
2024-03-24T08:23:43.950Z,399
2024-03-24T08:24:58.190Z,421
2024-03-24T08:26:12.430Z,472
2024-03-24T08:27:26.669Z,495
2024-03-24T08:28:40.909Z,506
2024-03-24T08:29:55.149Z,517
2024-03-24T08:31:09.388Z,528
2024-03-24T08:32:23.628Z,528
2024-03-24T08:33:37.868Z,511
2024-03-24T08:34:51.123Z,495
2024-03-24T08:36:05.363Z,500
2024-03-24T08:37:19.603Z,489
2024-03-24T08:38:33.842Z,495
2024-03-24T08:39:48.082Z,517
2024-03-24T08:41:02.322Z,506
2024-03-24T08:42:16.562Z,495
2024-03-24T08:43:30.801Z,478
2024-03-24T08:44:45.041Z,483
2024-03-24T08:45:59.280Z,478
2024-03-24T08:47:13.520Z,534
2024-03-24T08:48:27.759Z,472
2024-03-24T08:49:41.999Z,534
2024-03-24T08:50:55.255Z,528
2024-03-24T08:52:09.495Z,511
2024-03-24T08:53:23.734Z,534
2024-03-24T08:54:37.974Z,523
2024-03-24T08:55:52.213Z,534
2024-03-24T08:57:06.453Z,545
2024-03-24T08:58:20.692Z,523
2024-03-24T08:59:34.932Z,461
2024-03-24T09:00:49.172Z,416
2024-03-24T09:02:03.411Z,388
2024-03-24T09:03:17.651Z,382
2024-03-24T09:04:31.891Z,348
2024-03-24T09:05:46.130Z,315
2024-03-24T09:06:59.386Z,275
2024-03-24T09:08:13.625Z,219
2024-03-24T09:09:27.865Z,213
2024-03-24T09:10:42.105Z,196
2024-03-24T09:11:56.344Z,185
2024-03-24T09:13:10.584Z,191
2024-03-24T09:14:24.824Z,208
2024-03-24T09:15:39.063Z,202
2024-03-24T09:16:53.303Z,196
2024-03-24T09:18:07.543Z,191
2024-03-24T09:19:21.782Z,174
2024-03-24T09:20:36.022Z,157
2024-03-24T09:21:50.262Z,146
2024-03-24T09:23:03.518Z,140
2024-03-24T09:24:17.758Z,135
2024-03-24T09:25:31.997Z,146
2024-03-24T09:26:46.237Z,168
2024-03-24T09:28:00.477Z,191
2024-03-24T09:29:14.716Z,213
2024-03-24T09:30:28.956Z,213
2024-03-24T09:31:43.196Z,213
2024-03-24T09:32:57.436Z,208
2024-03-24T09:34:11.676Z,213
2024-03-24T09:35:25.916Z,213
2024-03-24T09:36:40.156Z,219
2024-03-24T09:37:54.395Z,219
2024-03-24T09:39:07.651Z,219
2024-03-24T09:40:21.890Z,225
2024-03-24T09:41:36.130Z,236
2024-03-24T09:42:50.369Z,241
2024-03-24T09:44:04.609Z,247
2024-03-24T09:45:18.849Z,281
2024-03-24T09:46:33.088Z,298
2024-03-24T09:47:47.328Z,286
2024-03-24T09:49:01.567Z,264
2024-03-24T09:50:15.806Z,241
2024-03-24T09:51:30.046Z,225
2024-03-24T09:52:44.286Z,219
2024-03-24T09:53:58.526Z,219
2024-03-24T09:55:11.782Z,230
2024-03-24T09:56:26.022Z,236
2024-03-24T09:57:40.262Z,247
2024-03-24T09:58:54.501Z,264
2024-03-24T10:00:08.741Z,281
2024-03-24T10:01:22.981Z,270
2024-03-24T10:02:37.220Z,236
2024-03-24T10:03:51.460Z,225
2024-03-24T10:05:05.699Z,230
2024-03-24T10:06:19.940Z,230
2024-03-24T10:07:34.179Z,225
2024-03-24T10:08:48.419Z,225
2024-03-24T10:10:02.659Z,230
2024-03-24T10:11:16.898Z,230
2024-03-24T10:12:30.154Z,219
2024-03-24T10:13:44.394Z,208
2024-03-24T10:14:58.634Z,202
2024-03-24T10:16:12.873Z,196
2024-03-24T10:17:27.114Z,202
2024-03-24T10:18:41.353Z,191
2024-03-24T10:19:55.593Z,196
2024-03-24T10:21:09.833Z,208
2024-03-24T10:22:24.072Z,202
2024-03-24T10:23:38.312Z,208
2024-03-24T10:24:52.552Z,225
2024-03-24T10:26:06.793Z,236
2024-03-24T10:27:21.033Z,241
2024-03-24T10:28:34.289Z,264
2024-03-24T10:29:48.528Z,286
2024-03-24T10:31:02.768Z,264
2024-03-24T10:32:17.009Z,247
2024-03-24T10:33:31.249Z,230
2024-03-24T10:34:45.488Z,219
2024-03-24T10:35:59.728Z,213
2024-03-24T10:37:13.967Z,202
2024-03-24T10:38:28.207Z,202
2024-03-24T10:39:42.447Z,202
2024-03-24T10:40:56.686Z,196
2024-03-24T10:42:10.926Z,196
2024-03-24T10:43:25.166Z,202
2024-03-24T10:44:38.422Z,185
2024-03-24T10:45:52.662Z,174
2024-03-24T10:47:06.902Z,168
2024-03-24T10:48:21.141Z,163
2024-03-24T10:49:35.381Z,157
2024-03-24T10:50:49.621Z,168
2024-03-24T10:52:03.860Z,163
2024-03-24T10:53:18.100Z,146
2024-03-24T10:54:32.340Z,140
2024-03-24T10:55:46.579Z,146
2024-03-24T10:57:00.819Z,151
2024-03-24T10:58:15.059Z,157
2024-03-24T10:59:29.299Z,163
2024-03-24T11:00:42.554Z,163
2024-03-24T11:01:56.794Z,146
2024-03-24T11:03:11.034Z,135
2024-03-24T11:04:25.273Z,135
2024-03-24T11:05:39.513Z,129
2024-03-24T11:06:53.752Z,135
2024-03-24T11:08:07.992Z,135
2024-03-24T11:09:22.232Z,129
2024-03-24T11:10:36.472Z,118
2024-03-24T11:11:50.711Z,112
2024-03-24T11:13:04.951Z,101
2024-03-24T11:14:19.190Z,95
2024-03-24T11:15:33.430Z,90
2024-03-24T11:16:46.686Z,95
2024-03-24T11:18:00.925Z,101
2024-03-24T11:19:15.164Z,106
2024-03-24T11:20:29.403Z,118
2024-03-24T11:21:43.643Z,129
2024-03-24T11:22:57.883Z,129
2024-03-24T11:24:12.122Z,140
2024-03-24T11:25:26.361Z,151
2024-03-24T11:26:40.600Z,157
2024-03-24T11:27:54.840Z,163
2024-03-24T11:29:09.079Z,163
2024-03-24T11:30:23.319Z,163
2024-03-24T11:31:37.559Z,163
2024-03-24T11:32:50.814Z,157
2024-03-24T11:34:05.054Z,157
2024-03-24T11:35:19.293Z,168
2024-03-24T11:36:33.533Z,168
2024-03-24T11:37:47.773Z,196
2024-03-24T11:39:02.012Z,230
2024-03-24T11:40:16.251Z,230
2024-03-24T11:41:30.491Z,247
2024-03-24T11:42:44.731Z,286
2024-03-24T11:43:58.971Z,298
2024-03-24T11:45:13.210Z,275
2024-03-24T11:46:27.450Z,253
2024-03-24T11:47:41.689Z,258
2024-03-24T11:48:54.945Z,286
2024-03-24T11:50:09.185Z,315
2024-03-24T11:51:23.424Z,331
2024-03-24T11:52:37.664Z,354
2024-03-24T11:53:51.904Z,371
2024-03-24T11:55:06.144Z,376
2024-03-24T11:56:20.384Z,376
2024-03-24T11:57:34.623Z,376
2024-03-24T11:58:48.863Z,382
2024-03-24T12:00:03.102Z,393
2024-03-24T12:01:17.342Z,405
2024-03-24T12:02:31.582Z,427
2024-03-24T12:03:45.822Z,455
2024-03-24T12:04:59.078Z,489
2024-03-24T12:06:13.317Z,511
2024-03-24T12:07:27.557Z,506
2024-03-24T12:08:41.796Z,472
2024-03-24T12:09:56.036Z,433
2024-03-24T12:11:10.275Z,410
2024-03-24T12:12:24.515Z,410
2024-03-24T12:13:38.754Z,433
2024-03-24T12:14:52.994Z,438
2024-03-24T12:16:07.234Z,427
2024-03-24T12:17:21.473Z,421
2024-03-24T12:18:35.713Z,405
2024-03-24T12:19:49.953Z,343
2024-03-24T12:21:03.208Z,309
2024-03-24T12:22:17.448Z,315
2024-03-24T12:23:31.687Z,298
2024-03-24T12:24:45.927Z,298
2024-03-24T12:26:00.167Z,292
2024-03-24T12:27:13.428Z,270
2024-03-24T12:28:27.667Z,264
2024-03-24T12:29:41.907Z,281
2024-03-24T12:30:56.146Z,298
2024-03-24T12:32:10.386Z,309
2024-03-24T12:33:24.626Z,303
2024-03-24T12:34:38.865Z,303
2024-03-24T12:35:53.105Z,298
2024-03-24T12:37:07.345Z,292
2024-03-24T12:38:21.584Z,270
2024-03-24T12:39:35.825Z,241
2024-03-24T12:40:50.064Z,230
2024-03-24T12:42:04.304Z,225
2024-03-24T12:43:17.559Z,225
2024-03-24T12:44:31.799Z,230
2024-03-24T12:45:46.038Z,247
2024-03-24T12:47:00.278Z,270
2024-03-24T12:48:14.518Z,286
2024-03-24T12:49:28.757Z,298
2024-03-24T12:50:42.997Z,309
2024-03-24T12:51:57.237Z,320
2024-03-24T12:53:11.476Z,337
2024-03-24T12:54:25.716Z,360
2024-03-24T12:55:39.955Z,388
2024-03-24T12:56:54.195Z,405
2024-03-24T12:58:08.435Z,438
2024-03-24T12:59:21.691Z,444
2024-03-24T13:00:35.930Z,461
2024-03-24T13:01:50.170Z,472
2024-03-24T13:03:04.409Z,506
2024-03-24T13:04:18.649Z,540
2024-03-24T13:05:32.888Z,551
2024-03-24T13:06:47.128Z,585
2024-03-24T13:08:01.367Z,613
2024-03-24T13:09:15.607Z,601
2024-03-24T13:10:29.847Z,624
2024-03-24T13:11:44.086Z,624
2024-03-24T13:12:58.326Z,585
2024-03-24T13:14:12.565Z,568
2024-03-24T13:15:25.821Z,585
2024-03-24T13:16:40.060Z,534
2024-03-24T13:17:54.300Z,506
2024-03-24T13:19:08.539Z,489
2024-03-24T13:20:22.779Z,478
2024-03-24T13:21:37.018Z,472
2024-03-24T13:22:51.258Z,455
2024-03-24T13:24:05.497Z,433
2024-03-24T13:25:19.737Z,388
2024-03-24T13:26:33.976Z,343
2024-03-24T13:27:48.216Z,309
2024-03-24T13:29:02.456Z,303
2024-03-24T13:30:16.696Z,286
2024-03-24T13:31:29.951Z,264
2024-03-24T13:32:44.191Z,253
2024-03-24T13:33:58.430Z,264
2024-03-24T13:35:12.669Z,281
2024-03-24T13:36:26.909Z,292
2024-03-24T13:37:41.148Z,298
2024-03-24T13:38:55.388Z,326
2024-03-24T13:40:09.627Z,360
2024-03-24T13:41:23.867Z,393
2024-03-24T13:42:38.107Z,405
2024-03-24T13:43:52.346Z,410
2024-03-24T13:45:06.586Z,455
2024-03-24T13:46:20.825Z,393
2024-03-24T13:47:34.081Z,360
2024-03-24T13:48:48.320Z,343
2024-03-24T13:50:02.560Z,337
2024-03-24T13:51:16.799Z,371
2024-03-24T13:52:31.039Z,382
2024-03-24T13:53:45.279Z,405
2024-03-24T13:54:59.518Z,433
2024-03-24T13:56:13.758Z,438
2024-03-24T13:57:27.997Z,461
2024-03-24T13:58:42.237Z,450
2024-03-24T13:59:56.476Z,472
2024-03-24T14:01:10.716Z,472
2024-03-24T14:02:24.955Z,495
2024-03-24T14:03:38.211Z,528
2024-03-24T14:04:52.450Z,528
2024-03-24T14:06:06.691Z,523
2024-03-24T14:07:20.930Z,523
2024-03-24T14:08:35.170Z,478
2024-03-24T14:09:49.409Z,506
2024-03-24T14:11:03.648Z,511
2024-03-24T14:12:17.888Z,534
2024-03-24T14:13:32.128Z,478
2024-03-24T14:14:46.368Z,410
2024-03-24T14:16:00.607Z,421
2024-03-24T14:17:14.847Z,416
2024-03-24T14:18:29.086Z,399
2024-03-24T14:19:42.342Z,427
2024-03-24T14:20:56.582Z,421
2024-03-24T14:22:10.822Z,433
2024-03-24T14:23:25.061Z,444
2024-03-24T14:24:39.302Z,444
2024-03-24T14:25:53.542Z,556
2024-03-24T14:27:07.782Z,489
2024-03-24T14:28:22.022Z,562
2024-03-24T14:29:36.261Z,540
2024-03-24T14:30:50.502Z,478
2024-03-24T14:32:04.742Z,438
2024-03-24T14:33:18.981Z,483
2024-03-24T14:34:33.220Z,433
2024-03-24T14:35:46.476Z,371
2024-03-24T14:37:00.716Z,354
2024-03-24T14:38:14.955Z,343
2024-03-24T14:39:29.195Z,343
2024-03-24T14:40:43.435Z,337
2024-03-24T14:41:57.674Z,348
2024-03-24T14:43:11.914Z,298
2024-03-24T14:44:26.153Z,281
2024-03-24T14:45:40.393Z,258
2024-03-24T14:46:54.632Z,241
2024-03-24T14:48:08.872Z,236
2024-03-24T14:49:23.111Z,230
2024-03-24T14:50:37.351Z,213
2024-03-24T14:51:50.607Z,191
2024-03-24T14:53:04.847Z,185
2024-03-24T14:54:19.087Z,196
2024-03-24T14:55:33.326Z,213
2024-03-24T14:56:47.567Z,230
2024-03-24T14:58:01.806Z,247
2024-03-24T14:59:16.046Z,270
2024-03-24T15:00:30.286Z,315
2024-03-24T15:01:44.525Z,348
2024-03-24T15:02:58.765Z,371
2024-03-24T15:04:13.005Z,427
2024-03-24T15:05:27.244Z,410
2024-03-24T15:06:41.484Z,405
2024-03-24T15:07:54.740Z,360
2024-03-24T15:09:08.980Z,337
2024-03-24T15:10:23.220Z,331
2024-03-24T15:11:37.460Z,320
2024-03-24T15:12:51.700Z,281
2024-03-24T15:14:05.939Z,270
2024-03-24T15:15:20.179Z,258
2024-03-24T15:16:34.419Z,241
2024-03-24T15:17:48.659Z,219
2024-03-24T15:19:02.899Z,196
2024-03-24T15:20:17.139Z,185
2024-03-24T15:21:31.378Z,168
2024-03-24T15:22:45.619Z,157
2024-03-24T15:23:58.875Z,157
2024-03-24T15:25:13.114Z,163
2024-03-24T15:26:27.354Z,174
2024-03-24T15:27:41.594Z,191
2024-03-24T15:28:55.834Z,208
2024-03-24T15:30:10.074Z,219
2024-03-24T15:31:24.313Z,230
2024-03-24T15:32:38.553Z,236
2024-03-24T15:33:52.792Z,236
2024-03-24T15:35:07.032Z,236
2024-03-24T15:36:21.272Z,236
2024-03-24T15:37:35.511Z,230
2024-03-24T15:38:49.751Z,225
2024-03-24T15:40:03.007Z,225
2024-03-24T15:41:17.246Z,219
2024-03-24T15:42:31.486Z,213
2024-03-24T15:43:45.725Z,208
2024-03-24T15:44:59.965Z,202
2024-03-24T15:46:14.204Z,196
2024-03-24T15:47:28.444Z,185
2024-03-24T15:48:42.683Z,174
2024-03-24T15:49:56.923Z,168
2024-03-24T15:51:11.163Z,157
2024-03-24T15:52:25.402Z,146
2024-03-24T15:53:39.642Z,140
2024-03-24T15:54:53.881Z,129
2024-03-24T15:56:07.137Z,123
2024-03-24T15:57:21.376Z,118
2024-03-24T15:58:35.616Z,112
2024-03-24T15:59:49.856Z,106
2024-03-24T16:01:04.096Z,101
2024-03-24T16:02:18.335Z,95
2024-03-24T16:03:32.575Z,90
2024-03-24T16:04:46.814Z,84
2024-03-24T16:06:01.054Z,78
2024-03-24T16:07:15.293Z,78
2024-03-24T16:08:29.533Z,67
2024-03-24T16:09:43.773Z,50
2024-03-24T16:10:58.013Z,45
2024-03-24T16:12:11.268Z,33
2024-03-24T16:13:25.508Z,33
2024-03-24T16:14:39.748Z,28
2024-03-24T16:15:53.987Z,28
2024-03-24T16:17:08.227Z,22
2024-03-24T16:18:22.466Z,22
2024-03-24T16:19:36.706Z,22
2024-03-24T16:20:50.945Z,28
2024-03-24T16:22:05.185Z,28
2024-03-24T16:23:19.425Z,28
2024-03-24T16:24:33.665Z,28
2024-03-24T16:25:47.905Z,22
2024-03-24T16:27:02.145Z,22
2024-03-24T16:28:15.401Z,22
2024-03-24T16:29:29.640Z,22
2024-03-24T16:30:43.880Z,22
2024-03-24T16:31:58.120Z,28
2024-03-24T16:33:12.360Z,28
2024-03-24T16:34:26.599Z,22
2024-03-24T16:35:39.860Z,16
2024-03-24T16:36:54.100Z,16
2024-03-24T16:38:08.340Z,11
2024-03-24T16:39:22.579Z,11
2024-03-24T16:40:36.819Z,11
2024-03-24T16:41:51.059Z,16
2024-03-24T16:43:05.298Z,22
2024-03-24T16:44:19.538Z,22
2024-03-24T16:45:33.778Z,28
2024-03-24T16:46:48.017Z,28
2024-03-24T16:48:02.257Z,33
2024-03-24T16:49:16.497Z,33
2024-03-24T16:50:30.736Z,33
2024-03-24T16:51:43.992Z,33
2024-03-24T16:52:58.232Z,33
2024-03-24T16:54:12.471Z,33
2024-03-24T16:55:26.711Z,33
2024-03-24T16:56:40.951Z,33
2024-03-24T16:57:55.190Z,28
2024-03-24T16:59:09.429Z,28
2024-03-24T17:00:23.669Z,22
2024-03-24T17:01:37.908Z,22
2024-03-24T17:02:52.147Z,22
2024-03-24T17:04:06.387Z,16
2024-03-24T17:05:20.627Z,16
2024-03-24T17:06:34.867Z,16
2024-03-24T17:07:48.123Z,16
2024-03-24T17:09:02.362Z,16
2024-03-24T17:10:16.602Z,16
2024-03-24T17:11:30.842Z,16
2024-03-24T17:12:45.081Z,16
2024-03-24T17:13:59.321Z,16
2024-03-24T17:15:13.561Z,11
2024-03-24T17:16:27.801Z,11
2024-03-24T17:17:42.040Z,5
2024-03-24T17:18:56.279Z,5
2024-03-24T17:20:10.519Z,5
2024-03-24T17:21:24.758Z,5
2024-03-24T17:22:38.998Z,5
2024-03-24T17:23:52.253Z,0
2024-03-24T17:25:06.493Z,0